Time,TemperatureF,DewpointF,PressureIn,WindDirection,WindDirectionDegrees,WindSpeedMPH,WindSpeedGustMPH,Humidity,HourlyPrecipIn,Conditions,Clouds,dailyrainin,SoftwareType,DateUTC
2013-02-02 00:01:00,51.0,46.0,30.04,East,82,1.0,4.0,83,0.00,,,-99.99,,2013-02-02 08:01:00,
2013-02-02 00:11:00,51.0,46.0,30.04,East,82,1.0,4.0,83,0.00,,,-99.99,,2013-02-02 08:11:00,
2013-02-02 00:21:00,51.0,46.0,30.04,East,82,1.0,4.0,83,0.00,,,-99.99,,2013-02-02 08:21:00,
2013-02-02 00:31:00,51.0,46.0,30.04,East,82,1.0,4.0,83,0.00,,,-99.99,,2013-02-02 08:31:00,
2013-02-02 01:32:00,52.0,45.0,30.03,East,81,1.0,3.0,77,0.00,,,-99.99,,2013-02-02 09:32:00,
2013-02-02 01:42:00,52.0,45.0,30.03,East,81,1.0,3.0,77,0.00,,,-99.99,,2013-02-02 09:42:00,
2013-02-02 01:52:00,52.0,45.0,30.03,East,81,1.0,3.0,77,0.00,,,-99.99,,2013-02-02 09:52:00,
2013-02-02 02:01:00,52.0,44.0,30.02,East,81,0.0,0.0,74,0.00,,,-99.99,,2013-02-02 10:01:00,
2013-02-02 02:10:00,52.0,44.0,30.03,East,81,0.0,0.0,75,0.00,,,-99.99,,2013-02-02 10:10:00,
2013-02-02 02:11:00,52.0,44.0,30.02,East,81,0.0,0.0,74,0.00,,,-99.99,,2013-02-02 10:11:00,
2013-02-02 02:21:00,52.0,44.0,30.02,East,81,0.0,0.0,74,0.00,,,-99.99,,2013-02-02 10:21:00,
2013-02-02 02:31:00,52.0,44.0,30.03,East,81,0.0,0.0,75,0.00,,,-99.99,,2013-02-02 10:31:00,
2013-02-02 02:41:00,52.0,44.0,30.03,East,81,0.0,0.0,75,0.00,,,-99.99,,2013-02-02 10:41:00,
2013-02-02 02:52:00,52.0,44.0,30.03,East,81,0.0,0.0,75,0.00,,,-99.99,,2013-02-02 10:52:00,
2013-02-02 03:01:00,52.0,44.0,30.03,East,81,0.0,0.0,75,0.00,,,-99.99,,2013-02-02 11:01:00,
2013-02-02 03:10:00,52.0,45.0,30.04,SW,228,0.0,2.0,77,0.00,,,-99.99,,2013-02-02 11:10:00,
2013-02-02 03:32:00,52.0,45.0,30.04,SW,228,0.0,2.0,77,0.00,,,-99.99,,2013-02-02 11:32:00,
2013-02-02 03:42:00,52.0,45.0,30.04,SW,228,0.0,2.0,77,0.00,,,-99.99,,2013-02-02 11:42:00,
2013-02-02 03:52:00,52.0,45.0,30.04,SW,228,0.0,2.0,77,0.00,,,-99.99,,2013-02-02 11:52:00,
2013-02-02 04:01:00,52.0,45.0,30.04,SW,228,0.0,2.0,77,0.00,,,-99.99,,2013-02-02 12:01:00,
2013-02-02 05:40:00,51.0,44.0,30.03,North,5,0.0,1.0,78,0.00,,,-99.99,,2013-02-02 13:40:00,
2013-02-02 06:02:00,51.0,44.0,30.03,North,5,0.0,1.0,78,0.00,,,-99.99,,2013-02-02 14:02:00,
2013-02-02 06:11:00,51.0,44.0,30.03,North,5,0.0,1.0,78,0.00,,,-99.99,,2013-02-02 14:11:00,
2013-02-02 06:22:00,51.0,44.0,30.03,North,5,0.0,1.0,78,0.00,,,-99.99,,2013-02-02 14:22:00,
2013-02-02 06:32:00,51.0,44.0,30.03,North,5,0.0,1.0,78,0.00,,,-99.99,,2013-02-02 14:32:00,
2013-02-02 07:03:00,55.0,42.0,30.03,NE,34,2.0,5.0,62,0.00,,,-99.99,,2013-02-02 15:03:00,
2013-02-02 07:10:00,57.0,40.0,30.03,NE,34,0.0,1.0,52,0.00,,,-99.99,,2013-02-02 15:10:00,
2013-02-02 07:12:00,55.0,42.0,30.03,NE,34,2.0,5.0,62,0.00,,,-99.99,,2013-02-02 15:12:00,
2013-02-02 07:21:00,55.0,42.0,30.03,NE,34,2.0,5.0,62,0.00,,,-99.99,,2013-02-02 15:21:00,
2013-02-02 07:32:00,57.0,40.0,30.03,NE,34,0.0,1.0,52,0.00,,,-99.99,,2013-02-02 15:32:00,
2013-02-02 07:41:00,57.0,40.0,30.03,NE,34,0.0,1.0,52,0.00,,,-99.99,,2013-02-02 15:41:00,
2013-02-02 07:52:00,57.0,40.0,30.03,NE,34,0.0,1.0,52,0.00,,,-99.99,,2013-02-02 15:52:00,
2013-02-02 08:02:00,57.0,40.0,30.03,NE,34,0.0,1.0,52,0.00,,,-99.99,,2013-02-02 16:02:00,
2013-02-02 08:32:00,56.0,44.0,30.05,NE,34,0.0,1.0,65,0.00,,,-99.99,,2013-02-02 16:32:00,
2013-02-02 08:40:00,55.0,45.0,30.06,NE,34,0.0,0.0,68,0.00,,,-99.99,,2013-02-02 16:40:00,
2013-02-02 08:42:00,56.0,44.0,30.05,NE,34,0.0,1.0,65,0.00,,,-99.99,,2013-02-02 16:42:00,
2013-02-02 08:52:00,56.0,44.0,30.05,NE,34,0.0,1.0,65,0.00,,,-99.99,,2013-02-02 16:52:00,
2013-02-02 09:02:00,55.0,45.0,30.06,NE,34,0.0,0.0,68,0.00,,,-99.99,,2013-02-02 17:02:00,
2013-02-02 09:11:00,55.0,45.0,30.06,NE,34,0.0,0.0,68,0.00,,,-99.99,,2013-02-02 17:11:00,
2013-02-02 09:22:00,55.0,45.0,30.06,NE,34,0.0,0.0,68,0.00,,,-99.99,,2013-02-02 17:22:00,
2013-02-02 09:31:00,55.0,45.0,30.06,NE,34,0.0,0.0,68,0.00,,,-99.99,,2013-02-02 17:31:00,
2013-02-02 10:02:00,67.0,39.0,30.06,ENE,64,1.0,4.0,36,0.00,,,-99.99,,2013-02-02 18:02:00,
2013-02-02 10:12:00,67.0,39.0,30.06,ENE,64,1.0,4.0,36,0.00,,,-99.99,,2013-02-02 18:12:00,
2013-02-02 10:22:00,67.0,39.0,30.06,ENE,64,1.0,4.0,36,0.00,,,-99.99,,2013-02-02 18:22:00,
2013-02-02 10:31:00,70.0,38.0,30.06,ENE,62,2.0,7.0,31,0.00,,,-99.99,,2013-02-02 18:31:00,
2013-02-02 10:40:00,73.0,38.0,30.06,ENE,66,2.0,6.0,28,0.00,,,-99.99,,2013-02-02 18:40:00,
2013-02-02 10:41:00,70.0,38.0,30.06,ENE,62,2.0,7.0,31,0.00,,,-99.99,,2013-02-02 18:41:00,
2013-02-02 10:52:00,70.0,38.0,30.06,ENE,62,2.0,7.0,31,0.00,,,-99.99,,2013-02-02 18:52:00,
2013-02-02 11:01:00,73.0,38.0,30.06,ENE,66,2.0,6.0,28,0.00,,,-99.99,,2013-02-02 19:01:00,
2013-02-02 11:11:00,73.0,38.0,30.06,ENE,66,2.0,6.0,28,0.00,,,-99.99,,2013-02-02 19:11:00,
2013-02-02 11:21:00,73.0,38.0,30.06,ENE,66,2.0,6.0,28,0.00,,,-99.99,,2013-02-02 19:21:00,
2013-02-02 11:32:00,73.0,38.0,30.06,ENE,66,2.0,6.0,28,0.00,,,-99.99,,2013-02-02 19:32:00,
2013-02-02 11:40:00,71.0,50.0,30.05,SW,228,1.0,5.0,48,0.00,,,-99.99,,2013-02-02 19:40:00,
2013-02-02 12:01:00,71.0,50.0,30.05,SW,228,1.0,5.0,48,0.00,,,-99.99,,2013-02-02 20:01:00,
2013-02-02 12:11:00,71.0,50.0,30.05,SW,228,1.0,5.0,48,0.00,,,-99.99,,2013-02-02 20:11:00,
2013-02-02 12:21:00,71.0,50.0,30.05,SW,228,1.0,5.0,48,0.00,,,-99.99,,2013-02-02 20:21:00,
2013-02-02 12:32:00,71.0,50.0,30.05,SW,228,1.0,5.0,48,0.00,,,-99.99,,2013-02-02 20:32:00,
2013-02-02 14:02:00,67.0,50.0,30.00,WSW,251,0.0,1.0,54,0.00,,,-99.99,,2013-02-02 22:02:00,
2013-02-02 14:11:00,67.0,50.0,30.00,WSW,251,0.0,1.0,54,0.00,,,-99.99,,2013-02-02 22:11:00,
2013-02-02 14:21:00,67.0,50.0,30.00,WSW,251,0.0,1.0,54,0.00,,,-99.99,,2013-02-02 22:21:00,
2013-02-02 14:32:00,68.0,49.0,30.00,WSW,250,0.0,0.0,51,0.00,,,-99.99,,2013-02-02 22:32:00,
2013-02-02 14:41:00,68.0,49.0,30.00,WSW,250,0.0,0.0,51,0.00,,,-99.99,,2013-02-02 22:41:00,
2013-02-02 14:52:00,68.0,49.0,30.00,WSW,250,0.0,0.0,51,0.00,,,-99.99,,2013-02-02 22:52:00,
2013-02-02 15:01:00,67.0,48.0,30.00,WSW,250,0.0,2.0,50,0.00,,,-99.99,,2013-02-02 23:01:00,
2013-02-02 15:10:00,67.0,49.0,30.01,WSW,250,0.0,1.0,52,0.00,,,-99.99,,2013-02-02 23:10:00,
2013-02-02 15:11:00,67.0,48.0,30.00,WSW,250,0.0,2.0,50,0.00,,,-99.99,,2013-02-02 23:11:00,
2013-02-02 15:21:00,67.0,48.0,30.00,WSW,250,0.0,2.0,50,0.00,,,-99.99,,2013-02-02 23:21:00,
2013-02-02 15:32:00,67.0,49.0,30.01,WSW,250,0.0,1.0,52,0.00,,,-99.99,,2013-02-02 23:32:00,
2013-02-02 15:41:00,67.0,49.0,30.01,WSW,250,0.0,1.0,52,0.00,,,-99.99,,2013-02-02 23:41:00,
2013-02-02 15:52:00,67.0,49.0,30.01,WSW,250,0.0,1.0,52,0.00,,,-99.99,,2013-02-02 23:52:00,
2013-02-02 16:01:00,67.0,49.0,30.01,WSW,250,0.0,1.0,52,0.00,,,-99.99,,2013-02-03 00:01:00,
2013-02-02 16:32:00,66.0,47.0,30.02,WSW,243,0.0,1.0,50,0.00,,,-99.99,,2013-02-03 00:32:00,
2013-02-02 16:42:00,66.0,47.0,30.02,WSW,243,0.0,1.0,50,0.00,,,-99.99,,2013-02-03 00:42:00,
2013-02-02 16:52:00,66.0,47.0,30.02,WSW,243,0.0,1.0,50,0.00,,,-99.99,,2013-02-03 00:52:00,
2013-02-02 17:01:00,65.0,49.0,30.03,West,264,0.0,2.0,56,0.00,,,-99.99,,2013-02-03 01:01:00,
2013-02-02 17:11:00,65.0,49.0,30.03,West,264,0.0,2.0,56,0.00,,,-99.99,,2013-02-03 01:11:00,
2013-02-02 17:21:00,65.0,49.0,30.03,West,264,0.0,2.0,56,0.00,,,-99.99,,2013-02-03 01:21:00,
2013-02-02 17:32:00,63.0,49.0,30.03,West,264,0.0,0.0,61,0.00,,,-99.99,,2013-02-03 01:32:00,
2013-02-02 17:41:00,63.0,49.0,30.03,West,264,0.0,0.0,61,0.00,,,-99.99,,2013-02-03 01:41:00,
2013-02-02 17:52:00,63.0,49.0,30.03,West,264,0.0,0.0,61,0.00,,,-99.99,,2013-02-03 01:52:00,
2013-02-02 18:01:00,63.0,50.0,30.03,West,261,0.0,0.0,62,0.00,,,-99.99,,2013-02-03 02:01:00,
2013-02-02 18:10:00,63.0,48.0,30.04,ENE,66,1.0,6.0,57,0.00,,,-99.99,,2013-02-03 02:10:00,
2013-02-02 18:11:00,63.0,50.0,30.03,West,261,0.0,0.0,62,0.00,,,-99.99,,2013-02-03 02:11:00,
2013-02-02 18:21:00,63.0,50.0,30.03,West,261,0.0,0.0,62,0.00,,,-99.99,,2013-02-03 02:21:00,
2013-02-02 18:31:00,63.0,48.0,30.04,ENE,66,1.0,6.0,57,0.00,,,-99.99,,2013-02-03 02:31:00,
2013-02-02 18:41:00,63.0,48.0,30.04,ENE,66,1.0,6.0,57,0.00,,,-99.99,,2013-02-03 02:41:00,
2013-02-02 18:52:00,63.0,48.0,30.04,ENE,66,1.0,6.0,57,0.00,,,-99.99,,2013-02-03 02:52:00,
2013-02-02 19:01:00,63.0,48.0,30.04,ENE,66,1.0,6.0,57,0.00,,,-99.99,,2013-02-03 03:01:00,
2013-02-02 20:10:00,64.0,46.0,30.06,ENE,64,0.0,2.0,52,0.00,,,-99.99,,2013-02-03 04:10:00,
2013-02-02 20:32:00,64.0,46.0,30.06,ENE,64,0.0,2.0,52,0.00,,,-99.99,,2013-02-03 04:32:00,
2013-02-02 20:42:00,64.0,46.0,30.06,ENE,64,0.0,2.0,52,0.00,,,-99.99,,2013-02-03 04:42:00,
2013-02-02 20:52:00,64.0,46.0,30.06,ENE,64,0.0,2.0,52,0.00,,,-99.99,,2013-02-03 04:52:00,
2013-02-02 21:03:00,64.0,46.0,30.06,ENE,64,0.0,2.0,52,0.00,,,-99.99,,2013-02-03 05:03:00,
2013-02-02 21:10:00,63.0,46.0,30.06,NE,40,1.0,5.0,54,0.00,,,-99.99,,2013-02-03 05:10:00,
2013-02-02 21:32:00,63.0,46.0,30.06,NE,40,1.0,5.0,54,0.00,,,-99.99,,2013-02-03 05:32:00,
2013-02-02 21:42:00,63.0,46.0,30.06,NE,40,1.0,5.0,54,0.00,,,-99.99,,2013-02-03 05:42:00,
2013-02-02 21:52:00,63.0,46.0,30.06,NE,40,1.0,5.0,54,0.00,,,-99.99,,2013-02-03 05:52:00,
2013-02-02 22:02:00,63.0,46.0,30.06,NE,40,1.0,5.0,54,0.00,,,-99.99,,2013-02-03 06:02:00,
2013-02-02 22:40:00,63.0,44.0,30.03,ENE,65,2.0,5.0,50,0.00,,,-99.99,,2013-02-03 06:40:00,
2013-02-02 23:01:00,63.0,44.0,30.03,ENE,65,2.0,5.0,50,0.00,,,-99.99,,2013-02-03 07:01:00,
2013-02-02 23:11:00,63.0,44.0,30.03,ENE,65,2.0,5.0,50,0.00,,,-99.99,,2013-02-03 07:11:00,
2013-02-02 23:21:00,63.0,44.0,30.03,ENE,65,2.0,5.0,50,0.00,,,-99.99,,2013-02-03 07:21:00,
2013-02-02 23:31:00,63.0,44.0,30.03,ENE,65,2.0,5.0,50,0.00,,,-99.99,,2013-02-03 07:31:00,
2013-02-02 23:40:00,63.0,43.0,30.03,NE,41,1.0,4.0,48,0.00,,,-99.99,,2013-02-03 07:40:00,